Estación de Los Colihues

Ultimos registro cada 15 minutos 79
Estación Fecha / Hora Temperatura Humedad Lluvia Velocidad Dirección Radiación Presion
79 Los Colihues 06-05-2026 19:30 9,9 91,8 0 0 240 0,6 1011,8
78 Los Colihues 06-05-2026 19:15 10,2 88,4 0 0 240 0,6 1011,4
77 Los Colihues 06-05-2026 19:00 11,1 84,9 0 0 240 0,6 1011,3
76 Los Colihues 06-05-2026 18:45 11,4 83,1 0 0 240 0,6 1011,1
75 Los Colihues 06-05-2026 18:30 12,3 78,7 0 0 260 0,6 1011,1
74 Los Colihues 06-05-2026 18:15 12,6 77,5 0 0 285 0,6 1010,6
73 Los Colihues 06-05-2026 18:00 13 76 0 0 264 1,9 1010,4
72 Los Colihues 06-05-2026 17:45 13,7 74,2 0 0,5 258 14,4 1010,2
71 Los Colihues 06-05-2026 17:30 14,5 71,4 0 0,5 254 41,9 1009,9
70 Los Colihues 06-05-2026 17:15 15,2 69,4 0 0,5 282 95,6 1009,6
69 Los Colihues 06-05-2026 17:00 15,4 71,6 0 0,5 281 180,6 1009,5
68 Los Colihues 06-05-2026 16:45 15,1 72,5 0 1 270 136,9 1009,5
67 Los Colihues 06-05-2026 16:30 14,6 75,2 0 1 272 129,4 1009,2
66 Los Colihues 06-05-2026 16:15 14,3 75,9 0 1,5 291 58,1 1009
65 Los Colihues 06-05-2026 16:00 15,3 74,4 0 1 303 315,6 1008,9
64 Los Colihues 06-05-2026 15:45 14,7 74,9 0 1,5 284 126,9 1008,8
63 Los Colihues 06-05-2026 15:30 14,3 78,6 0 1 272 69,4 1008,5
62 Los Colihues 06-05-2026 15:15 14,3 78,8 0 2 289 95,6 1008,5
61 Los Colihues 06-05-2026 15:00 14,8 78,2 0 1,5 278 150,6 1008
60 Los Colihues 06-05-2026 14:45 15,3 76,8 0 1,5 271 233,1 1007,7
59 Los Colihues 06-05-2026 14:30 15,3 76,2 0 1,5 275 240,6 1007,2
58 Los Colihues 06-05-2026 14:15 15,5 76,9 0 1,5 268 424,4 1006,6
57 Los Colihues 06-05-2026 14:00 15,3 76,7 0 2 264 236,9 1006,3
56 Los Colihues 06-05-2026 13:45 15,4 77,5 0 2 277 319,4 1006,1
55 Los Colihues 06-05-2026 13:30 15,6 78,7 0 2 282 301,9 1005,7
54 Los Colihues 06-05-2026 13:15 15,5 78,8 0 2,5 274 116,9 1005,5
53 Los Colihues 06-05-2026 13:00 16,6 79,4 0 2 272 674,4 1004,6
52 Los Colihues 06-05-2026 12:45 15,9 79,2 0 1,5 288 163,1 1004,9
51 Los Colihues 06-05-2026 12:30 15,3 85,4 0 1,5 285 524,4 1004,2
50 Los Colihues 06-05-2026 12:15 14,1 88,8 0 2 284 161,9 1004,4
49 Los Colihues 06-05-2026 12:00 14,6 89,3 0 1,5 281 189,4 1003,9
48 Los Colihues 06-05-2026 11:45 13,9 93,8 0 2 284 193,1 1003,5
47 Los Colihues 06-05-2026 11:30 13,5 96,8 0 2 291 149,4 1003,2
46 Los Colihues 06-05-2026 11:15 13,9 99 0 1 352 45,6 1002,7
45 Los Colihues 06-05-2026 11:00 13,5 98,9 0,4 1 334 50,6 1002
44 Los Colihues 06-05-2026 10:45 13,4 99,1 0,6 1 345 54,4 1001,8
43 Los Colihues 06-05-2026 10:30 13,2 99,3 1,6 1,5 1 46,9 1001,8
42 Los Colihues 06-05-2026 10:15 13,2 97,6 0,6 2,5 24 43,1 1001,4
41 Los Colihues 06-05-2026 10:00 13,1 97,6 2,2 3 28 20,6 1001,3
40 Los Colihues 06-05-2026 09:45 13,3 96,3 0 3 32 18,1 1000,8
39 Los Colihues 06-05-2026 09:30 13,2 96,7 0 2,5 31 43,1 1000,9
38 Los Colihues 06-05-2026 09:15 13 97,4 0,2 2 22 25,6 1000,6
37 Los Colihues 06-05-2026 09:00 13 97,5 0,2 2,5 37 4,4 1001
36 Los Colihues 06-05-2026 08:45 13 97,5 0 2,5 39 0,6 1000,9
35 Los Colihues 06-05-2026 08:30 12,9 97,8 1 3,5 38 0,6 1000,4
34 Los Colihues 06-05-2026 08:15 13 97,8 1 3 32 0,6 1000,6
33 Los Colihues 06-05-2026 08:00 13 98 0,4 3 35 0,6 1000,6
32 Los Colihues 06-05-2026 07:45 13 97,6 0,6 2,5 39 0,6 1000,2
31 Los Colihues 06-05-2026 07:30 13 97,1 0,2 2,5 35 0,6 1000,6
30 Los Colihues 06-05-2026 07:15 13 97,2 0 2 35 0,6 1000,7
29 Los Colihues 06-05-2026 07:00 12,9 97,3 0,2 3 31 0,6 1000,4
28 Los Colihues 06-05-2026 06:45 12,9 97,7 0,8 2,5 39 0,6 1000,4
27 Los Colihues 06-05-2026 06:30 12,9 97,9 0,2 2 31 0,6 1000,7
26 Los Colihues 06-05-2026 06:15 12,8 98,4 0,2 2 28 0,6 1000,3
25 Los Colihues 06-05-2026 06:00 12,9 97,7 0 2 25 0,6 1000,7
24 Los Colihues 06-05-2026 05:45 12,9 97,6 0,4 2,5 28 0,6 1000,4
23 Los Colihues 06-05-2026 05:30 13 97,3 0 3 27 0,6 1000,4
22 Los Colihues 06-05-2026 05:15 13 98,5 0 3 31 0,6 1000,1
21 Los Colihues 06-05-2026 05:00 12,8 99,6 0 3 38 0,6 1000,2
20 Los Colihues 06-05-2026 04:45 12,8 99,6 0 2 41 0,6 1000,2
19 Los Colihues 06-05-2026 04:30 12,8 99,6 0 2,5 38 0,6 1000,4
18 Los Colihues 06-05-2026 04:15 12,8 99,6 0,2 2 39 0,6 1000,6
17 Los Colihues 06-05-2026 04:00 12,8 99,6 0,2 1,5 41 0,6 1001
16 Los Colihues 06-05-2026 03:45 12,8 99,5 0,6 2 38 0,6 1001
15 Los Colihues 06-05-2026 03:30 12,9 99,4 0,6 2 35 0,6 1000,9
14 Los Colihues 06-05-2026 03:15 12,9 99,2 0,4 2 34 0,6 1001,2
13 Los Colihues 06-05-2026 03:00 13,1 98,9 1,6 2 34 0,6 1001,3
12 Los Colihues 06-05-2026 02:45 13,1 98,5 0,8 1,5 15 0,6 1001,2
11 Los Colihues 06-05-2026 02:30 13,1 98,2 0,4 2 27 0,6 1001,6
10 Los Colihues 06-05-2026 02:15 13,2 98,2 3 2,5 21 0,6 1001,6
9 Los Colihues 06-05-2026 02:00 13,3 96 3,4 2 11 0,6 1001,5
8 Los Colihues 06-05-2026 01:45 13,7 93,8 3 3 21 0,6 1001,1
7 Los Colihues 06-05-2026 01:30 14,1 90,8 1,6 2,5 10 0,6 1001,3
6 Los Colihues 06-05-2026 01:15 15,2 82,5 0 2 13 0,6 1001,4
5 Los Colihues 06-05-2026 01:00 14,9 84,4 0 2,5 27 0,6 1000,7
4 Los Colihues 06-05-2026 00:45 14,7 84,7 0 3 31 0,6 1001
3 Los Colihues 06-05-2026 00:30 14,6 85 0 2,5 44 0,6 1000,6
2 Los Colihues 06-05-2026 00:15 14,7 84,3 0 2,5 39 0,6 1000,6
1 Los Colihues 06-05-2026 00:00 14,8 84,4 0 3 39 0,6 1001,5